sensor_id;sensor_type;location;lat;lon;timestamp;P1;durP1;ratioP1;P2;durP2;ratioP2
33794;SDS011;51430;52.242;21.118;2023-12-20T00:01:37;23.00;;;20.70;;
33794;SDS011;51430;52.242;21.118;2023-12-20T00:04:03;22.10;;;19.90;;
33794;SDS011;51430;52.242;21.118;2023-12-20T00:06:30;20.70;;;18.70;;
33794;SDS011;51430;52.242;21.118;2023-12-20T00:08:57;21.90;;;19.80;;
33794;SDS011;51430;52.242;21.118;2023-12-20T00:11:26;20.30;;;18.40;;
33794;SDS011;51430;52.242;21.118;2023-12-20T00:13:53;18.70;;;16.90;;
33794;SDS011;51430;52.242;21.118;2023-12-20T00:16:19;20.60;;;18.60;;
33794;SDS011;51430;52.242;21.118;2023-12-20T00:18:46;19.80;;;17.90;;
33794;SDS011;51430;52.242;21.118;2023-12-20T00:21:12;20.20;;;18.30;;
33794;SDS011;51430;52.242;21.118;2023-12-20T00:23:39;19.00;;;17.20;;
33794;SDS011;51430;52.242;21.118;2023-12-20T00:26:06;19.50;;;17.70;;
33794;SDS011;51430;52.242;21.118;2023-12-20T00:28:32;19.70;;;17.70;;
33794;SDS011;51430;52.242;21.118;2023-12-20T00:30:59;19.80;;;17.90;;
33794;SDS011;51430;52.242;21.118;2023-12-20T00:33:26;18.70;;;16.90;;
33794;SDS011;51430;52.242;21.118;2023-12-20T00:35:52;18.30;;;16.40;;
33794;SDS011;51430;52.242;21.118;2023-12-20T00:38:19;19.50;;;17.60;;
33794;SDS011;51430;52.242;21.118;2023-12-20T00:40:45;18.80;;;17.00;;
33794;SDS011;51430;52.242;21.118;2023-12-20T00:43:12;18.60;;;16.80;;
33794;SDS011;51430;52.242;21.118;2023-12-20T00:45:38;18.80;;;17.00;;
33794;SDS011;51430;52.242;21.118;2023-12-20T00:48:06;18.40;;;16.70;;
33794;SDS011;51430;52.242;21.118;2023-12-20T00:50:33;18.30;;;16.60;;
33794;SDS011;51430;52.242;21.118;2023-12-20T00:52:59;17.50;;;15.90;;
33794;SDS011;51430;52.242;21.118;2023-12-20T00:55:26;16.40;;;14.80;;
33794;SDS011;51430;52.242;21.118;2023-12-20T00:57:53;17.10;;;15.50;;
33794;SDS011;51430;52.242;21.118;2023-12-20T01:00:20;17.00;;;15.40;;
33794;SDS011;51430;52.242;21.118;2023-12-20T01:02:46;18.30;;;16.50;;
33794;SDS011;51430;52.242;21.118;2023-12-20T01:05:15;17.80;;;16.20;;
33794;SDS011;51430;52.242;21.118;2023-12-20T01:07:42;17.90;;;16.20;;
33794;SDS011;51430;52.242;21.118;2023-12-20T01:10:09;17.60;;;16.00;;
33794;SDS011;51430;52.242;21.118;2023-12-20T01:12:36;17.00;;;15.40;;
33794;SDS011;51430;52.242;21.118;2023-12-20T01:15:03;17.60;;;15.90;;
33794;SDS011;51430;52.242;21.118;2023-12-20T01:17:30;17.40;;;15.80;;
33794;SDS011;51430;52.242;21.118;2023-12-20T01:19:56;18.30;;;16.40;;
33794;SDS011;51430;52.242;21.118;2023-12-20T01:22:25;16.90;;;15.50;;
33794;SDS011;51430;52.242;21.118;2023-12-20T01:24:52;17.90;;;16.10;;
33794;SDS011;51430;52.242;21.118;2023-12-20T01:27:18;17.10;;;15.60;;
33794;SDS011;51430;52.242;21.118;2023-12-20T01:29:45;16.50;;;15.00;;
33794;SDS011;51430;52.242;21.118;2023-12-20T01:32:11;16.60;;;15.10;;
33794;SDS011;51430;52.242;21.118;2023-12-20T01:34:38;17.40;;;15.80;;
33794;SDS011;51430;52.242;21.118;2023-12-20T01:37:04;15.90;;;14.40;;
33794;SDS011;51430;52.242;21.118;2023-12-20T01:39:31;16.50;;;15.10;;
33794;SDS011;51430;52.242;21.118;2023-12-20T01:41:57;17.50;;;15.80;;
33794;SDS011;51430;52.242;21.118;2023-12-20T01:44:24;16.80;;;15.30;;
33794;SDS011;51430;52.242;21.118;2023-12-20T01:46:51;17.00;;;15.40;;
33794;SDS011;51430;52.242;21.118;2023-12-20T01:49:18;16.60;;;15.00;;
33794;SDS011;51430;52.242;21.118;2023-12-20T01:51:44;16.60;;;15.10;;
33794;SDS011;51430;52.242;21.118;2023-12-20T01:54:12;16.50;;;15.00;;
33794;SDS011;51430;52.242;21.118;2023-12-20T01:56:38;17.90;;;16.10;;
33794;SDS011;51430;52.242;21.118;2023-12-20T01:59:06;16.90;;;15.30;;
33794;SDS011;51430;52.242;21.118;2023-12-20T02:01:37;17.30;;;15.60;;
33794;SDS011;51430;52.242;21.118;2023-12-20T02:04:04;16.40;;;14.90;;
33794;SDS011;51430;52.242;21.118;2023-12-20T02:06:37;16.80;;;15.20;;
33794;SDS011;51430;52.242;21.118;2023-12-20T02:09:06;16.40;;;14.80;;
33794;SDS011;51430;52.242;21.118;2023-12-20T02:11:33;18.00;;;16.30;;
33794;SDS011;51430;52.242;21.118;2023-12-20T02:14:01;16.50;;;15.10;;
33794;SDS011;51430;52.242;21.118;2023-12-20T02:16:28;18.30;;;16.40;;
33794;SDS011;51430;52.242;21.118;2023-12-20T02:18:55;16.50;;;15.00;;
33794;SDS011;51430;52.242;21.118;2023-12-20T02:21:33;13.10;;;11.90;;
33794;SDS011;51430;52.242;21.118;2023-12-20T02:24:01;13.50;;;12.30;;
33794;SDS011;51430;52.242;21.118;2023-12-20T02:26:27;13.80;;;12.50;;
33794;SDS011;51430;52.242;21.118;2023-12-20T02:28:54;11.30;;;10.20;;
33794;SDS011;51430;52.242;21.118;2023-12-20T02:31:21;12.00;;;10.90;;
33794;SDS011;51430;52.242;21.118;2023-12-20T02:33:48;10.60;;;9.70;;
33794;SDS011;51430;52.242;21.118;2023-12-20T02:36:15;9.90;;;9.00;;
33794;SDS011;51430;52.242;21.118;2023-12-20T02:38:41;10.40;;;9.40;;
33794;SDS011;51430;52.242;21.118;2023-12-20T02:41:08;9.60;;;8.70;;
33794;SDS011;51430;52.242;21.118;2023-12-20T02:43:37;9.50;;;8.60;;
33794;SDS011;51430;52.242;21.118;2023-12-20T02:46:03;9.30;;;8.50;;
33794;SDS011;51430;52.242;21.118;2023-12-20T02:48:30;7.80;;;7.10;;
33794;SDS011;51430;52.242;21.118;2023-12-20T02:50:58;7.20;;;6.60;;
33794;SDS011;51430;52.242;21.118;2023-12-20T02:53:25;7.40;;;6.70;;
33794;SDS011;51430;52.242;21.118;2023-12-20T02:55:51;7.40;;;6.70;;
33794;SDS011;51430;52.242;21.118;2023-12-20T02:58:18;7.40;;;6.70;;
33794;SDS011;51430;52.242;21.118;2023-12-20T03:00:45;9.60;;;8.70;;
33794;SDS011;51430;52.242;21.118;2023-12-20T03:03:11;7.70;;;7.00;;
33794;SDS011;51430;52.242;21.118;2023-12-20T03:05:38;8.00;;;7.30;;
33794;SDS011;51430;52.242;21.118;2023-12-20T03:08:05;9.90;;;8.90;;
33794;SDS011;51430;52.242;21.118;2023-12-20T03:10:31;9.20;;;8.30;;
33794;SDS011;51430;52.242;21.118;2023-12-20T03:12:58;8.80;;;8.00;;
33794;SDS011;51430;52.242;21.118;2023-12-20T03:15:25;8.80;;;8.00;;
33794;SDS011;51430;52.242;21.118;2023-12-20T03:17:52;9.30;;;8.50;;
33794;SDS011;51430;52.242;21.118;2023-12-20T03:20:18;9.60;;;8.70;;
33794;SDS011;51430;52.242;21.118;2023-12-20T03:22:45;13.10;;;12.00;;
33794;SDS011;51430;52.242;21.118;2023-12-20T03:25:11;9.90;;;9.00;;
33794;SDS011;51430;52.242;21.118;2023-12-20T03:27:38;8.40;;;7.60;;
33794;SDS011;51430;52.242;21.118;2023-12-20T03:30:05;9.60;;;8.70;;
33794;SDS011;51430;52.242;21.118;2023-12-20T03:32:32;8.60;;;7.90;;
33794;SDS011;51430;52.242;21.118;2023-12-20T03:34:59;9.50;;;8.60;;
33794;SDS011;51430;52.242;21.118;2023-12-20T03:37:26;8.80;;;8.10;;
33794;SDS011;51430;52.242;21.118;2023-12-20T03:39:54;9.40;;;8.50;;
33794;SDS011;51430;52.242;21.118;2023-12-20T03:42:21;9.20;;;8.40;;
33794;SDS011;51430;52.242;21.118;2023-12-20T03:44:47;8.70;;;7.90;;
33794;SDS011;51430;52.242;21.118;2023-12-20T03:47:14;9.20;;;8.50;;
33794;SDS011;51430;52.242;21.118;2023-12-20T03:49:40;9.70;;;8.80;;
33794;SDS011;51430;52.242;21.118;2023-12-20T03:52:07;8.70;;;8.00;;
33794;SDS011;51430;52.242;21.118;2023-12-20T03:54:34;8.90;;;8.10;;
33794;SDS011;51430;52.242;21.118;2023-12-20T03:57:01;9.60;;;8.70;;
33794;SDS011;51430;52.242;21.118;2023-12-20T03:59:28;9.40;;;8.50;;
33794;SDS011;51430;52.242;21.118;2023-12-20T04:01:54;8.50;;;7.80;;
33794;SDS011;51430;52.242;21.118;2023-12-20T04:04:21;8.80;;;8.10;;
33794;SDS011;51430;52.242;21.118;2023-12-20T04:06:47;9.10;;;8.30;;
33794;SDS011;51430;52.242;21.118;2023-12-20T04:09:15;9.30;;;8.50;;
33794;SDS011;51430;52.242;21.118;2023-12-20T04:11:42;9.50;;;8.70;;
33794;SDS011;51430;52.242;21.118;2023-12-20T04:14:08;9.70;;;8.90;;
33794;SDS011;51430;52.242;21.118;2023-12-20T04:16:37;9.80;;;9.00;;
33794;SDS011;51430;52.242;21.118;2023-12-20T04:19:05;9.70;;;8.90;;
33794;SDS011;51430;52.242;21.118;2023-12-20T04:21:31;9.70;;;8.90;;
33794;SDS011;51430;52.242;21.118;2023-12-20T04:23:57;9.60;;;8.80;;
33794;SDS011;51430;52.242;21.118;2023-12-20T04:26:24;9.90;;;9.00;;
33794;SDS011;51430;52.242;21.118;2023-12-20T04:28:52;10.30;;;9.40;;
33794;SDS011;51430;52.242;21.118;2023-12-20T04:31:21;10.20;;;9.30;;
33794;SDS011;51430;52.242;21.118;2023-12-20T04:33:50;9.80;;;9.00;;
33794;SDS011;51430;52.242;21.118;2023-12-20T04:36:16;9.20;;;8.50;;
33794;SDS011;51430;52.242;21.118;2023-12-20T04:38:43;9.30;;;8.50;;
33794;SDS011;51430;52.242;21.118;2023-12-20T04:41:09;9.50;;;8.70;;
33794;SDS011;51430;52.242;21.118;2023-12-20T04:43:36;10.30;;;9.40;;
33794;SDS011;51430;52.242;21.118;2023-12-20T04:46:03;10.20;;;9.30;;
33794;SDS011;51430;52.242;21.118;2023-12-20T04:48:30;10.40;;;9.50;;
33794;SDS011;51430;52.242;21.118;2023-12-20T04:50:56;10.00;;;9.10;;
33794;SDS011;51430;52.242;21.118;2023-12-20T04:53:23;9.60;;;8.80;;
33794;SDS011;51430;52.242;21.118;2023-12-20T04:55:51;10.00;;;9.20;;
33794;SDS011;51430;52.242;21.118;2023-12-20T04:58:17;10.40;;;9.50;;
33794;SDS011;51430;52.242;21.118;2023-12-20T05:00:44;10.40;;;9.40;;
33794;SDS011;51430;52.242;21.118;2023-12-20T05:03:11;10.20;;;9.40;;
33794;SDS011;51430;52.242;21.118;2023-12-20T05:05:40;10.60;;;9.70;;
33794;SDS011;51430;52.242;21.118;2023-12-20T05:08:06;11.40;;;10.40;;
33794;SDS011;51430;52.242;21.118;2023-12-20T05:10:33;11.50;;;10.60;;
33794;SDS011;51430;52.242;21.118;2023-12-20T05:13:00;12.20;;;11.00;;
33794;SDS011;51430;52.242;21.118;2023-12-20T05:15:27;11.70;;;10.80;;
33794;SDS011;51430;52.242;21.118;2023-12-20T05:17:53;11.40;;;10.40;;
33794;SDS011;51430;52.242;21.118;2023-12-20T05:20:20;11.70;;;10.70;;
33794;SDS011;51430;52.242;21.118;2023-12-20T05:22:46;12.30;;;11.30;;
33794;SDS011;51430;52.242;21.118;2023-12-20T05:25:14;12.50;;;11.40;;
33794;SDS011;51430;52.242;21.118;2023-12-20T05:27:41;12.80;;;11.70;;
33794;SDS011;51430;52.242;21.118;2023-12-20T05:30:08;12.80;;;11.70;;
33794;SDS011;51430;52.242;21.118;2023-12-20T05:32:35;13.00;;;11.90;;
33794;SDS011;51430;52.242;21.118;2023-12-20T05:35:02;12.90;;;11.80;;
33794;SDS011;51430;52.242;21.118;2023-12-20T05:37:29;13.10;;;12.00;;
33794;SDS011;51430;52.242;21.118;2023-12-20T05:39:56;13.50;;;12.40;;
33794;SDS011;51430;52.242;21.118;2023-12-20T05:42:22;12.90;;;11.80;;
33794;SDS011;51430;52.242;21.118;2023-12-20T05:44:49;13.30;;;12.10;;
33794;SDS011;51430;52.242;21.118;2023-12-20T05:47:19;13.80;;;12.70;;
33794;SDS011;51430;52.242;21.118;2023-12-20T05:49:45;12.40;;;11.30;;
33794;SDS011;51430;52.242;21.118;2023-12-20T05:52:11;11.70;;;10.60;;
33794;SDS011;51430;52.242;21.118;2023-12-20T05:54:38;13.00;;;11.90;;
33794;SDS011;51430;52.242;21.118;2023-12-20T05:57:05;12.80;;;11.80;;
33794;SDS011;51430;52.242;21.118;2023-12-20T05:59:32;13.10;;;11.90;;
33794;SDS011;51430;52.242;21.118;2023-12-20T06:01:58;12.80;;;11.60;;
33794;SDS011;51430;52.242;21.118;2023-12-20T06:04:25;12.90;;;11.80;;
33794;SDS011;51430;52.242;21.118;2023-12-20T06:06:51;12.60;;;11.60;;
33794;SDS011;51430;52.242;21.118;2023-12-20T06:09:18;13.40;;;12.30;;
33794;SDS011;51430;52.242;21.118;2023-12-20T06:11:45;13.10;;;12.00;;
33794;SDS011;51430;52.242;21.118;2023-12-20T06:14:12;13.60;;;12.50;;
33794;SDS011;51430;52.242;21.118;2023-12-20T06:16:38;13.70;;;12.60;;
33794;SDS011;51430;52.242;21.118;2023-12-20T06:19:05;14.40;;;13.20;;
33794;SDS011;51430;52.242;21.118;2023-12-20T06:21:32;13.80;;;12.60;;
33794;SDS011;51430;52.242;21.118;2023-12-20T06:23:58;14.50;;;13.30;;
33794;SDS011;51430;52.242;21.118;2023-12-20T06:26:25;14.20;;;12.90;;
33794;SDS011;51430;52.242;21.118;2023-12-20T06:28:52;12.70;;;11.70;;
33794;SDS011;51430;52.242;21.118;2023-12-20T06:31:18;12.90;;;11.70;;
33794;SDS011;51430;52.242;21.118;2023-12-20T06:33:45;13.10;;;12.00;;
33794;SDS011;51430;52.242;21.118;2023-12-20T06:36:12;13.40;;;12.20;;
33794;SDS011;51430;52.242;21.118;2023-12-20T06:38:41;12.20;;;11.10;;
33794;SDS011;51430;52.242;21.118;2023-12-20T06:41:08;11.50;;;10.50;;
33794;SDS011;51430;52.242;21.118;2023-12-20T06:43:34;12.00;;;11.00;;
33794;SDS011;51430;52.242;21.118;2023-12-20T06:46:15;12.00;;;11.00;;
33794;SDS011;51430;52.242;21.118;2023-12-20T06:48:44;11.50;;;10.50;;
33794;SDS011;51430;52.242;21.118;2023-12-20T06:51:16;10.90;;;10.00;;
33794;SDS011;51430;52.242;21.118;2023-12-20T06:53:43;11.30;;;10.30;;
33794;SDS011;51430;52.242;21.118;2023-12-20T06:56:10;11.30;;;10.30;;
33794;SDS011;51430;52.242;21.118;2023-12-20T06:58:39;11.50;;;10.50;;
33794;SDS011;51430;52.242;21.118;2023-12-20T07:01:10;11.20;;;10.20;;
33794;SDS011;51430;52.242;21.118;2023-12-20T07:03:38;11.10;;;10.20;;
33794;SDS011;51430;52.242;21.118;2023-12-20T07:06:05;12.00;;;11.00;;
33794;SDS011;51430;52.242;21.118;2023-12-20T07:08:32;11.70;;;10.70;;
33794;SDS011;51430;52.242;21.118;2023-12-20T07:10:59;11.50;;;10.40;;
33794;SDS011;51430;52.242;21.118;2023-12-20T07:13:25;12.20;;;11.10;;
33794;SDS011;51430;52.242;21.118;2023-12-20T07:15:52;12.30;;;11.20;;
33794;SDS011;51430;52.242;21.118;2023-12-20T07:18:18;12.00;;;10.90;;
33794;SDS011;51430;52.242;21.118;2023-12-20T07:20:45;12.30;;;11.10;;
33794;SDS011;51430;52.242;21.118;2023-12-20T07:23:11;11.50;;;10.50;;
33794;SDS011;51430;52.242;21.118;2023-12-20T07:25:38;12.20;;;11.20;;
33794;SDS011;51430;52.242;21.118;2023-12-20T07:28:05;12.30;;;11.10;;
33794;SDS011;51430;52.242;21.118;2023-12-20T07:30:31;11.70;;;10.70;;
33794;SDS011;51430;52.242;21.118;2023-12-20T07:33:00;12.10;;;11.10;;
33794;SDS011;51430;52.242;21.118;2023-12-20T07:35:27;12.30;;;11.20;;
33794;SDS011;51430;52.242;21.118;2023-12-20T07:37:54;12.90;;;11.70;;
33794;SDS011;51430;52.242;21.118;2023-12-20T07:40:20;13.90;;;12.50;;
33794;SDS011;51430;52.242;21.118;2023-12-20T07:42:47;13.20;;;12.00;;
33794;SDS011;51430;52.242;21.118;2023-12-20T07:45:14;12.90;;;11.70;;
33794;SDS011;51430;52.242;21.118;2023-12-20T07:47:40;12.40;;;11.40;;
33794;SDS011;51430;52.242;21.118;2023-12-20T07:50:07;13.30;;;12.10;;
33794;SDS011;51430;52.242;21.118;2023-12-20T07:52:34;12.30;;;11.20;;
33794;SDS011;51430;52.242;21.118;2023-12-20T07:55:01;12.60;;;11.40;;
33794;SDS011;51430;52.242;21.118;2023-12-20T07:57:30;13.10;;;11.90;;
33794;SDS011;51430;52.242;21.118;2023-12-20T07:59:57;12.30;;;11.20;;
33794;SDS011;51430;52.242;21.118;2023-12-20T08:02:23;11.70;;;10.70;;
33794;SDS011;51430;52.242;21.118;2023-12-20T08:04:49;11.70;;;10.70;;
33794;SDS011;51430;52.242;21.118;2023-12-20T08:07:16;12.30;;;11.20;;
33794;SDS011;51430;52.242;21.118;2023-12-20T08:09:43;12.20;;;11.20;;
33794;SDS011;51430;52.242;21.118;2023-12-20T08:12:10;11.80;;;10.70;;
33794;SDS011;51430;52.242;21.118;2023-12-20T08:14:37;11.80;;;10.80;;
33794;SDS011;51430;52.242;21.118;2023-12-20T08:17:03;12.90;;;11.70;;
33794;SDS011;51430;52.242;21.118;2023-12-20T08:19:30;11.50;;;10.60;;
33794;SDS011;51430;52.242;21.118;2023-12-20T08:21:56;12.10;;;11.00;;
33794;SDS011;51430;52.242;21.118;2023-12-20T08:24:22;11.80;;;10.70;;
33794;SDS011;51430;52.242;21.118;2023-12-20T08:26:49;11.10;;;10.10;;
33794;SDS011;51430;52.242;21.118;2023-12-20T08:29:15;11.80;;;10.80;;
33794;SDS011;51430;52.242;21.118;2023-12-20T08:31:42;11.80;;;10.80;;
33794;SDS011;51430;52.242;21.118;2023-12-20T08:34:08;11.50;;;10.50;;
33794;SDS011;51430;52.242;21.118;2023-12-20T08:36:38;11.20;;;10.30;;
33794;SDS011;51430;52.242;21.118;2023-12-20T08:39:04;10.60;;;9.70;;
33794;SDS011;51430;52.242;21.118;2023-12-20T08:41:34;10.70;;;9.70;;
33794;SDS011;51430;52.242;21.118;2023-12-20T08:44:01;12.60;;;11.50;;
33794;SDS011;51430;52.242;21.118;2023-12-20T08:46:27;10.20;;;9.30;;
33794;SDS011;51430;52.242;21.118;2023-12-20T08:48:54;10.00;;;9.10;;
33794;SDS011;51430;52.242;21.118;2023-12-20T08:51:21;9.50;;;8.70;;
33794;SDS011;51430;52.242;21.118;2023-12-20T08:53:49;10.50;;;9.50;;
33794;SDS011;51430;52.242;21.118;2023-12-20T08:56:16;9.60;;;8.70;;
33794;SDS011;51430;52.242;21.118;2023-12-20T08:58:44;9.90;;;9.00;;
33794;SDS011;51430;52.242;21.118;2023-12-20T09:01:12;9.50;;;8.60;;
33794;SDS011;51430;52.242;21.118;2023-12-20T09:03:39;9.20;;;8.40;;
33794;SDS011;51430;52.242;21.118;2023-12-20T09:06:06;8.90;;;8.10;;
33794;SDS011;51430;52.242;21.118;2023-12-20T09:08:33;9.60;;;8.80;;
33794;SDS011;51430;52.242;21.118;2023-12-20T09:11:00;9.30;;;8.50;;
33794;SDS011;51430;52.242;21.118;2023-12-20T09:13:27;9.40;;;8.50;;
33794;SDS011;51430;52.242;21.118;2023-12-20T09:15:55;9.40;;;8.50;;
33794;SDS011;51430;52.242;21.118;2023-12-20T09:18:22;8.90;;;8.10;;
33794;SDS011;51430;52.242;21.118;2023-12-20T09:20:49;9.00;;;8.10;;
33794;SDS011;51430;52.242;21.118;2023-12-20T09:23:16;9.50;;;8.60;;
33794;SDS011;51430;52.242;21.118;2023-12-20T09:25:44;10.80;;;9.70;;
33794;SDS011;51430;52.242;21.118;2023-12-20T09:28:11;9.40;;;8.50;;
33794;SDS011;51430;52.242;21.118;2023-12-20T09:30:37;14.90;;;10.30;;
33794;SDS011;51430;52.242;21.118;2023-12-20T09:33:06;10.40;;;9.50;;
33794;SDS011;51430;52.242;21.118;2023-12-20T09:35:33;10.90;;;9.90;;
33794;SDS011;51430;52.242;21.118;2023-12-20T09:38:00;10.30;;;9.40;;
33794;SDS011;51430;52.242;21.118;2023-12-20T09:40:27;10.60;;;9.60;;
33794;SDS011;51430;52.242;21.118;2023-12-20T09:43:01;11.10;;;10.00;;
33794;SDS011;51430;52.242;21.118;2023-12-20T09:45:31;10.50;;;9.50;;
33794;SDS011;51430;52.242;21.118;2023-12-20T09:47:58;11.20;;;9.80;;
33794;SDS011;51430;52.242;21.118;2023-12-20T09:50:25;10.30;;;9.40;;
33794;SDS011;51430;52.242;21.118;2023-12-20T09:52:53;9.70;;;8.80;;
33794;SDS011;51430;52.242;21.118;2023-12-20T09:55:20;11.30;;;9.20;;
33794;SDS011;51430;52.242;21.118;2023-12-20T09:57:47;10.30;;;9.30;;
33794;SDS011;51430;52.242;21.118;2023-12-20T10:00:15;9.90;;;9.00;;
33794;SDS011;51430;52.242;21.118;2023-12-20T10:02:50;9.70;;;8.90;;
33794;SDS011;51430;52.242;21.118;2023-12-20T10:05:26;8.90;;;8.10;;
33794;SDS011;51430;52.242;21.118;2023-12-20T10:07:54;8.70;;;7.90;;
33794;SDS011;51430;52.242;21.118;2023-12-20T10:10:21;8.60;;;7.80;;
33794;SDS011;51430;52.242;21.118;2023-12-20T10:13:05;8.70;;;7.90;;
33794;SDS011;51430;52.242;21.118;2023-12-20T10:15:34;8.60;;;7.70;;
33794;SDS011;51430;52.242;21.118;2023-12-20T10:18:02;8.20;;;7.50;;
33794;SDS011;51430;52.242;21.118;2023-12-20T10:20:30;8.20;;;7.50;;
33794;SDS011;51430;52.242;21.118;2023-12-20T10:23:00;8.20;;;7.50;;
33794;SDS011;51430;52.242;21.118;2023-12-20T10:25:27;7.70;;;7.10;;
33794;SDS011;51430;52.242;21.118;2023-12-20T10:28:14;8.50;;;7.80;;
33794;SDS011;51430;52.242;21.118;2023-12-20T10:30:47;7.60;;;7.00;;
33794;SDS011;51430;52.242;21.118;2023-12-20T10:33:14;8.20;;;7.40;;
33794;SDS011;51430;52.242;21.118;2023-12-20T10:35:51;7.90;;;7.20;;
33794;SDS011;51430;52.242;21.118;2023-12-20T10:38:18;8.50;;;7.70;;
33794;SDS011;51430;52.242;21.118;2023-12-20T10:40:46;7.60;;;7.00;;
33794;SDS011;51430;52.242;21.118;2023-12-20T10:43:13;7.90;;;7.10;;
33794;SDS011;51430;52.242;21.118;2023-12-20T10:45:42;7.90;;;7.10;;
33794;SDS011;51430;52.242;21.118;2023-12-20T10:48:12;7.50;;;6.80;;
33794;SDS011;51430;52.242;21.118;2023-12-20T10:50:47;7.80;;;7.20;;
33794;SDS011;51430;52.242;21.118;2023-12-20T10:53:14;7.50;;;6.80;;
33794;SDS011;51430;52.242;21.118;2023-12-20T10:55:43;8.10;;;7.40;;
33794;SDS011;51430;52.242;21.118;2023-12-20T10:58:11;8.60;;;7.80;;
33794;SDS011;51430;52.242;21.118;2023-12-20T11:00:39;8.90;;;8.00;;
33794;SDS011;51430;52.242;21.118;2023-12-20T11:03:08;8.70;;;7.90;;
33794;SDS011;51430;52.242;21.118;2023-12-20T11:08:33;8.10;;;7.40;;
33794;SDS011;51430;52.242;21.118;2023-12-20T11:13:57;8.60;;;7.90;;
33794;SDS011;51430;52.242;21.118;2023-12-20T11:16:25;8.90;;;8.20;;
33794;SDS011;51430;52.242;21.118;2023-12-20T11:18:53;9.00;;;8.20;;
33794;SDS011;51430;52.242;21.118;2023-12-20T11:21:20;8.20;;;7.50;;
33794;SDS011;51430;52.242;21.118;2023-12-20T11:23:47;8.20;;;7.50;;
33794;SDS011;51430;52.242;21.118;2023-12-20T11:26:15;8.00;;;7.30;;
33794;SDS011;51430;52.242;21.118;2023-12-20T11:28:43;7.60;;;6.90;;
33794;SDS011;51430;52.242;21.118;2023-12-20T11:31:10;7.70;;;6.90;;
33794;SDS011;51430;52.242;21.118;2023-12-20T11:33:40;7.90;;;7.20;;
33794;SDS011;51430;52.242;21.118;2023-12-20T11:36:13;7.90;;;7.10;;
33794;SDS011;51430;52.242;21.118;2023-12-20T11:38:53;7.80;;;7.10;;
33794;SDS011;51430;52.242;21.118;2023-12-20T11:41:22;6.80;;;6.20;;
33794;SDS011;51430;52.242;21.118;2023-12-20T11:43:53;7.00;;;6.30;;
33794;SDS011;51430;52.242;21.118;2023-12-20T11:46:20;6.90;;;6.20;;
33794;SDS011;51430;52.242;21.118;2023-12-20T11:48:47;7.00;;;6.30;;
33794;SDS011;51430;52.242;21.118;2023-12-20T11:51:14;6.80;;;6.20;;
33794;SDS011;51430;52.242;21.118;2023-12-20T11:53:41;7.60;;;6.90;;
33794;SDS011;51430;52.242;21.118;2023-12-20T11:56:11;7.00;;;6.30;;
33794;SDS011;51430;52.242;21.118;2023-12-20T11:58:38;6.30;;;5.70;;
33794;SDS011;51430;52.242;21.118;2023-12-20T12:01:05;6.70;;;6.10;;
33794;SDS011;51430;52.242;21.118;2023-12-20T12:03:34;6.90;;;6.10;;
33794;SDS011;51430;52.242;21.118;2023-12-20T12:06:01;7.00;;;6.40;;
33794;SDS011;51430;52.242;21.118;2023-12-20T12:08:29;6.90;;;6.40;;
33794;SDS011;51430;52.242;21.118;2023-12-20T12:10:55;7.70;;;7.00;;
33794;SDS011;51430;52.242;21.118;2023-12-20T12:13:22;8.50;;;7.70;;
33794;SDS011;51430;52.242;21.118;2023-12-20T12:15:49;8.50;;;7.80;;
33794;SDS011;51430;52.242;21.118;2023-12-20T12:18:17;9.60;;;8.80;;
33794;SDS011;51430;52.242;21.118;2023-12-20T12:20:44;9.70;;;8.90;;
33794;SDS011;51430;52.242;21.118;2023-12-20T12:23:10;9.40;;;8.60;;
33794;SDS011;51430;52.242;21.118;2023-12-20T12:25:37;9.40;;;8.60;;
33794;SDS011;51430;52.242;21.118;2023-12-20T12:28:09;9.90;;;9.10;;
33794;SDS011;51430;52.242;21.118;2023-12-20T12:30:36;10.30;;;9.40;;
33794;SDS011;51430;52.242;21.118;2023-12-20T12:33:12;10.40;;;9.50;;
33794;SDS011;51430;52.242;21.118;2023-12-20T12:35:39;10.40;;;9.40;;
33794;SDS011;51430;52.242;21.118;2023-12-20T12:38:06;10.30;;;9.30;;
33794;SDS011;51430;52.242;21.118;2023-12-20T12:40:34;10.50;;;9.40;;
33794;SDS011;51430;52.242;21.118;2023-12-20T12:43:02;9.60;;;8.80;;
33794;SDS011;51430;52.242;21.118;2023-12-20T12:45:29;9.40;;;8.50;;
33794;SDS011;51430;52.242;21.118;2023-12-20T12:47:56;9.30;;;8.50;;
33794;SDS011;51430;52.242;21.118;2023-12-20T12:50:23;9.50;;;8.60;;
33794;SDS011;51430;52.242;21.118;2023-12-20T12:52:49;9.30;;;8.50;;
33794;SDS011;51430;52.242;21.118;2023-12-20T12:55:16;10.00;;;9.10;;
33794;SDS011;51430;52.242;21.118;2023-12-20T12:57:42;10.50;;;9.60;;
33794;SDS011;51430;52.242;21.118;2023-12-20T13:00:10;10.00;;;9.20;;
33794;SDS011;51430;52.242;21.118;2023-12-20T13:02:37;10.90;;;9.90;;
33794;SDS011;51430;52.242;21.118;2023-12-20T13:05:08;11.60;;;10.50;;
33794;SDS011;51430;52.242;21.118;2023-12-20T13:07:35;11.80;;;10.70;;
33794;SDS011;51430;52.242;21.118;2023-12-20T13:10:05;11.50;;;10.50;;
33794;SDS011;51430;52.242;21.118;2023-12-20T13:12:32;11.50;;;10.40;;
33794;SDS011;51430;52.242;21.118;2023-12-20T13:15:01;10.20;;;9.20;;
33794;SDS011;51430;52.242;21.118;2023-12-20T13:17:31;10.20;;;9.30;;
33794;SDS011;51430;52.242;21.118;2023-12-20T13:19:59;11.30;;;9.90;;
33794;SDS011;51430;52.242;21.118;2023-12-20T13:22:26;11.20;;;10.20;;
33794;SDS011;51430;52.242;21.118;2023-12-20T13:24:52;11.60;;;10.50;;
33794;SDS011;51430;52.242;21.118;2023-12-20T13:27:19;12.20;;;11.00;;
33794;SDS011;51430;52.242;21.118;2023-12-20T13:29:45;11.70;;;10.60;;
33794;SDS011;51430;52.242;21.118;2023-12-20T13:32:12;12.00;;;10.80;;
33794;SDS011;51430;52.242;21.118;2023-12-20T13:34:39;12.40;;;11.20;;
33794;SDS011;51430;52.242;21.118;2023-12-20T13:37:05;11.80;;;10.70;;
33794;SDS011;51430;52.242;21.118;2023-12-20T13:39:32;11.80;;;10.70;;
33794;SDS011;51430;52.242;21.118;2023-12-20T13:41:59;11.60;;;10.50;;
33794;SDS011;51430;52.242;21.118;2023-12-20T13:44:27;11.30;;;10.20;;
33794;SDS011;51430;52.242;21.118;2023-12-20T13:46:53;13.10;;;10.20;;
33794;SDS011;51430;52.242;21.118;2023-12-20T13:49:20;11.40;;;10.30;;
33794;SDS011;51430;52.242;21.118;2023-12-20T13:51:47;11.00;;;9.90;;
33794;SDS011;51430;52.242;21.118;2023-12-20T13:54:14;11.50;;;10.50;;
33794;SDS011;51430;52.242;21.118;2023-12-20T13:56:42;11.40;;;10.20;;
33794;SDS011;51430;52.242;21.118;2023-12-20T13:59:27;10.20;;;9.20;;
33794;SDS011;51430;52.242;21.118;2023-12-20T14:01:53;10.70;;;9.70;;
33794;SDS011;51430;52.242;21.118;2023-12-20T14:04:20;10.40;;;9.50;;
33794;SDS011;51430;52.242;21.118;2023-12-20T14:07:08;11.30;;;10.20;;
33794;SDS011;51430;52.242;21.118;2023-12-20T14:09:35;11.00;;;10.00;;
33794;SDS011;51430;52.242;21.118;2023-12-20T14:12:02;10.60;;;9.50;;
33794;SDS011;51430;52.242;21.118;2023-12-20T14:14:29;9.60;;;8.70;;
33794;SDS011;51430;52.242;21.118;2023-12-20T14:16:56;9.40;;;8.40;;
33794;SDS011;51430;52.242;21.118;2023-12-20T14:19:23;9.40;;;7.60;;
33794;SDS011;51430;52.242;21.118;2023-12-20T14:21:49;8.50;;;7.70;;
33794;SDS011;51430;52.242;21.118;2023-12-20T14:24:16;9.10;;;8.00;;
33794;SDS011;51430;52.242;21.118;2023-12-20T14:26:43;9.10;;;8.00;;
33794;SDS011;51430;52.242;21.118;2023-12-20T14:29:09;9.30;;;7.80;;